Data for 02/23/2006

Time Sea-Level Adjusted Pressure Absolute Pressure Temperature Relative Humidity Dew Point   
(mb) (inHg) (mb) (inHg) (C) (F) (%) (C) (F)
00:05 1014 29.94 843 24.89 0.5 32.8 49 -9 15.9
00:10 1014 29.94 843 24.89 0.4 32.7 49 -9 15.8
00:15 1014 29.94 843 24.89 0.5 32.9 48 -9.3 15.2
00:20 1014 29.94 843 24.89 0.7 33.3 48 -9.1 15.6
00:25 1014 29.94 843 24.89 0.7 33.2 48 -9.2 15.4
00:30 1014 29.94 843 24.89 0.6 33.1 50 -8.7 16.3
00:35 1014 29.94 844 24.92 0.5 32.9 50 -8.7 16.4
00:40 1014 29.94 844 24.92 0.5 32.8 50 -8.9 16.1
00:45 1014 29.94 843 24.89 0.5 32.8 49 -9 15.7
00:50 1014 29.94 843 24.89 0.5 33 48 -9.1 15.5
00:55 1014 29.94 843 24.89 0.5 32.9 49 -9 15.8
01:00 1014 29.94 843 24.89 0.4 32.8 49 -9 15.8
01:05 1014 29.94 844 24.92 0.4 32.8 50 -8.9 16
01:10 1014 29.94 844 24.92 0.4 32.7 50 -8.9 15.9
01:15 1014 29.94 844 24.92 0.4 32.7 50 -8.9 16
01:20 1014 29.94 844 24.92 0.4 32.7 50 -8.9 16
01:25 1014 29.94 844 24.92 0.4 32.7 49 -9 15.8
01:30 1014 29.94 844 24.92 0.4 32.7 51 -8.7 16.3
01:35 1014 29.94 844 24.92 0.3 32.5 50 -8.8 16.1
01:40 1014 29.94 844 24.92 0.5 32.9 48 -9.2 15.4
01:45 1014 29.94 844 24.92 0.7 33.3 48 -9.2 15.5
01:50 1014 29.94 844 24.92 0.7 33.3 49 -8.9 16
01:55 1014 29.94 844 24.92 0.8 33.4 48 -9.2 15.5
02:00 1014 29.94 843 24.89 0.7 33.2 48 -9.1 15.6
02:05 1014 29.94 843 24.89 0.8 33.4 47 -9.3 15.3
02:10 1014 29.94 843 24.89 0.9 33.6 46 -9.4 15.1
02:15 1014 29.94 843 24.89 0.9 33.7 47 -9.2 15.4
02:20 1014 29.94 843 24.89 0.9 33.5 48 -8.9 16
02:25 1014 29.94 843 24.89 0.8 33.4 49 -8.9 16
02:30 1014 29.94 843 24.89 0.9 33.6 47 -9.3 15.3
02:35 1014 29.94 843 24.89 0.9 33.6 48 -9 15.8
02:40 1014 29.94 843 24.89 0.8 33.4 48 -9 15.8
02:45 1014 29.94 843 24.89 0.8 33.4 48 -9.2 15.5
02:50 1014 29.94 843 24.89 0.9 33.6 47 -9.1 15.6
02:55 1014 29.94 843 24.89 0.8 33.4 48 -9.1 15.7
03:00 1014 29.94 843 24.89 0.8 33.4 48 -9 15.8
03:05 1014 29.94 843 24.89 0.7 33.2 49 -8.9 16
03:10 1014 29.94 843 24.89 0.6 33.1 50 -8.6 16.5
03:15 1014 29.94 843 24.89 0.5 32.8 51 -8.6 16.5
03:20 1014 29.94 843 24.89 0.5 32.9 49 -8.9 15.9
03:25 1014 29.94 843 24.89 0.5 32.9 50 -8.8 16.2
03:30 1014 29.94 843 24.89 0.5 32.9 50 -8.7 16.3
03:35 1014 29.94 843 24.89 0.4 32.7 51 -8.6 16.6
03:40 1014 29.94 843 24.89 0.3 32.6 51 -8.7 16.3
03:45 1014 29.94 843 24.89 0.5 32.9 49 -9.1 15.6
03:50 1014 29.94 843 24.89 0.8 33.4 47 -9.3 15.3
03:55 1014 29.94 843 24.89 0.9 33.6 47 -9.1 15.6
04:00 1014 29.94 843 24.89 0.8 33.4 47 -9.2 15.4
04:05 1014 29.94 843 24.89 0.8 33.5 48 -9 15.8
04:10 1014 29.94 843 24.89 0.8 33.4 47 -9.2 15.4
04:15 1014 29.94 843 24.89 0.8 33.4 47 -9.2 15.4
04:20 1014 29.94 843 24.89 0.9 33.5 48 -9 15.8
04:25 1014 29.94 843 24.89 1 33.7 48 -9 15.9
04:30 1014 29.94 843 24.89 1.1 33.9 47 -9 15.8
04:35 1014 29.94 843 24.89 1 33.9 47 -9 15.8
04:40 1014 29.94 843 24.89 1.2 34.1 46 -9.1 15.6
04:45 1014 29.94 843 24.89 1.3 34.3 46 -9.1 15.5
04:50 1014 29.94 843 24.89 1.3 34.4 47 -8.8 16.2
04:55 1014 29.94 843 24.89 1.3 34.4 46 -9 15.9
05:00 1014 29.94 843 24.89 1.2 34.2 46 -9 15.7
05:05 1014 29.94 843 24.89 1.4 34.5 46 -9.1 15.6
05:10 1014 29.94 843 24.89 1.3 34.4 46 -8.9 15.9
05:15 1014 29.94 843 24.89 1.3 34.3 47 -8.8 16.1
05:20 1014 29.94 843 24.89 1.2 34.2 48 -8.7 16.3
05:25 1014 29.94 843 24.89 1.3 34.3 46 -9.2 15.5
05:30 1014 29.94 843 24.89 1.5 34.7 45 -9.1 15.6
05:35 1014 29.94 843 24.89 1.5 34.7 46 -8.8 16.2
05:40 1014 29.94 843 24.89 1.5 34.7 47 -8.8 16.2
05:45 1014 29.94 843 24.89 1.5 34.7 47 -8.5 16.7
05:50 1014 29.94 843 24.89 1.3 34.4 48 -8.5 16.8
05:55 1014 29.94 843 24.89 1.3 34.4 47 -8.8 16.2
06:00 1014 29.94 843 24.89 1.3 34.4 47 -8.8 16.2
06:05 1014 29.94 843 24.89 1.2 34.2 48 -8.5 16.6
06:10 1014 29.94 843 24.89 1.2 34.2 47 -8.9 16
06:15 1014 29.94 843 24.89 1.4 34.5 46 -8.9 15.9
06:20 1014 29.94 843 24.89 1.4 34.4 48 -8.5 16.8
06:25 1014 29.94 843 24.89 1.2 34.2 48 -8.7 16.3
06:30 1014 29.94 843 24.89 1.2 34.1 47 -8.9 15.9
06:35 1014 29.94 843 24.89 1.3 34.4 46 -9.2 15.5
06:40 1014 29.94 843 24.89 1.3 34.4 47 -8.7 16.3
06:45 1014 29.94 843 24.89 1.2 34.2 46 -9.1 15.6
06:50 1014 29.94 843 24.89 1.3 34.4 47 -8.9 16
06:55 1014 29.94 843 24.89 1.3 34.3 47 -8.8 16.1
07:00 1014 29.94 843 24.89 1.2 34.2 47 -8.9 15.9
07:05 1014 29.94 843 24.89 1.2 34.2 46 -9.1 15.6
07:10 1014 29.94 843 24.89 1.3 34.3 46 -9.1 15.7
07:15 1014 29.94 843 24.89 1.2 34.2 47 -8.9 16
07:20 1014 29.94 843 24.89 1.1 34 47 -9.1 15.7
07:25 1014 29.94 843 24.89 1.1 33.9 48 -8.9 16
07:30 1014 29.94 843 24.89 0.9 33.7 47 -9.2 15.5
07:35 1014 29.94 843 24.89 1.1 34 45 -9.4 15
07:40 1014 29.94 843 24.89 1.3 34.3 46 -9.1 15.6
07:45 1014 29.94 843 24.89 1.2 34.2 47 -8.9 16.1
07:50 1014 29.94 843 24.89 1.1 33.9 48 -8.7 16.3
07:55 1014 29.94 843 24.89 1.1 33.9 48 -8.7 16.3
08:00 1014 29.94 843 24.89 1.1 34 48 -8.6 16.5
08:05 1014 29.94 843 24.89 1.2 34.1 48 -8.8 16.2
08:10 1014 29.94 843 24.89 1.4 34.5 46 -8.9 16
08:15 1014 29.94 843 24.89 1.6 34.9 46 -8.7 16.3
08:20 1014 29.94 843 24.89 1.7 35 45 -8.9 16
08:25 1014 29.94 843 24.89 1.8 35.2 44 -9.1 15.6
08:30 1014 29.94 843 24.89 2.1 35.8 44 -9 15.7
08:35 1014 29.94 843 24.89 2.2 35.9 43 -9 15.8
08:40 1014 29.94 843 24.89 2.2 36 45 -8.4 16.9
08:45 1014 29.94 843 24.89 2.3 36.1 44 -8.8 16.2
08:50 1014 29.94 843 24.89 2.6 36.6 44 -8.5 16.7
08:55 1014 29.94 843 24.89 2.8 37 43 -8.5 16.7
09:00 1014 29.94 844 24.92 2.9 37.2 43 -8.4 16.8
09:05 1014 29.94 844 24.92 2.8 37.1 43 -8.5 16.8
09:10 1014 29.94 844 24.92 2.8 37.1 42 -8.9 15.9
09:15 1014 29.94 844 24.92 2.8 37.1 44 -8.4 16.9
09:20 1014 29.94 844 24.92 2.8 37 44 -8.2 17.2
09:25 1014 29.94 844 24.92 2.7 36.9 45 -8.1 17.5
09:30 1014 29.94 844 24.92 2.6 36.8 43 -8.6 16.6
09:35 1014 29.94 844 24.92 2.9 37.1 44 -8.3 17.1
09:40 1014 29.94 844 24.92 3 37.4 44 -8 17.6
09:45 1014 29.94 844 24.92 3 37.5 43 -8.4 16.8
09:50 1014 29.94 843 24.89 3.3 38 41 -8.6 16.6
09:55 1014 29.94 843 24.89 3.4 38.2 41 -8.8 16.2
10:00 1014 29.94 843 24.89 3.6 38.5 42 -8.2 17.2
10:05 1014 29.94 843 24.89 3.7 38.7 42 -8.1 17.4
10:10 1014 29.94 843 24.89 3.8 38.8 41 -8.4 16.9
10:15 1014 29.94 843 24.89 3.7 38.7 41 -8.4 16.8
10:20 1014 29.94 843 24.89 3.6 38.6 42 -8.1 17.4
10:25 1014 29.94 843 24.89 3.7 38.7 42 -8 17.6
10:30 1014 29.94 843 24.89 3.9 39 42 -8 17.7
10:35 1014 29.94 843 24.89 3.6 38.5 43 -7.8 17.9
10:40 1014 29.94 843 24.89 3.5 38.3 42 -8.2 17.2
10:45 1014 29.94 843 24.89 3.6 38.5 41 -8.5 16.7
10:50 1014 29.94 843 24.89 3.8 38.8 42 -8.1 17.4
10:55 1014 29.94 843 24.89 3.6 38.5 42 -8 17.6
11:00 1014 29.94 843 24.89 3.5 38.3 42 -8.2 17.3
11:05 1014 29.94 843 24.89 3.5 38.3 42 -8.2 17.2
11:10 1014 29.94 843 24.89 3.6 38.4 43 -8 17.6
11:15 1014 29.94 843 24.89 3.7 38.7 42 -8 17.6
11:20 1014 29.94 843 24.89 3.7 38.7 43 -7.7 18.2
11:25 1014 29.94 843 24.89 3.6 38.5 44 -7.7 18.2
11:30 1014 29.94 843 24.89 3.6 38.4 43 -7.9 17.8
11:35 1014 29.94 843 24.89 3.6 38.4 45 -7.3 18.8
11:40 1014 29.94 843 24.89 3.6 38.5 44 -7.7 18.2
11:45 1014 29.94 843 24.89 3.6 38.6 43 -8 17.7
11:50 1014 29.94 843 24.89 3.7 38.7 44 -7.4 18.7
11:55 1014 29.94 843 24.89 3.6 38.6 44 -7.4 18.7
12:00 1014 29.94 843 24.89 3.8 38.8 44 -7.3 18.9
12:05 1013 29.91 843 24.89 3.7 38.6 44 -7.5 18.5
12:10 1013 29.91 843 24.89 3.8 38.8 43 -7.7 18.1
12:15 1013 29.91 843 24.89 3.9 39.1 46 -6.8 19.8
12:20 1013 29.91 842 24.86 3.9 39.1 45 -7.1 19.2
12:25 1013 29.91 842 24.86 4 39.1 43 -7.6 18.3
12:30 1013 29.91 842 24.86 4.2 39.5 43 -7.4 18.7
12:35 1013 29.91 842 24.86 4.2 39.5 44 -7.1 19.2
12:40 1013 29.91 842 24.86 4.1 39.3 44 -7.1 19.2
12:45 1013 29.91 842 24.86 4 39.2 45 -6.9 19.7
12:50 1013 29.91 842 24.86 4.1 39.5 42 -7.6 18.3
12:55 1013 29.91 842 24.86 4.3 39.7 43 -7.3 18.9
13:00 1013 29.91 842 24.86 4.2 39.6 44 -6.9 19.5
13:05 1013 29.91 842 24.86 4.5 40 41 -7.8 18
13:10 1013 29.91 842 24.86 4.7 40.5 39 -8.2 17.2
13:15 1013 29.91 842 24.86 4.7 40.5 38 -8.4 16.9
13:20 1013 29.91 842 24.86 4.6 40.3 38 -8.5 16.8
13:25 1012 29.88 842 24.86 4.6 40.3 37 -8.8 16.2
13:30 1012 29.88 842 24.86 4.6 40.3 39 -8 17.5
13:35 1012 29.88 842 24.86 4.6 40.2 40 -7.8 17.9
13:40 1012 29.88 842 24.86 4.5 40.2 40 -8 17.6
13:45 1012 29.88 841 24.83 4.7 40.4 37 -8.7 16.3
13:50 1012 29.88 841 24.83 4.8 40.7 38 -8.5 16.7
13:55 1012 29.88 841 24.83 4.8 40.6 37 -8.6 16.5
14:00 1012 29.88 841 24.83 4.9 40.8 38 -8.3 17
14:05 1012 29.88 841 24.83 4.9 40.9 37 -8.7 16.4
14:10 1012 29.88 841 24.83 5 41.1 35 -9.1 15.6
14:15 1012 29.88 841 24.83 5 41 37 -8.5 16.6
14:20 1012 29.88 841 24.83 5 41 38 -8.1 17.4
14:25 1012 29.88 841 24.83 4.8 40.7 39 -8 17.5
14:30 1012 29.88 841 24.83 4.9 40.8 37 -8.5 16.7
14:35 1012 29.88 841 24.83 5.1 41.2 37 -8.6 16.5
14:40 1012 29.88 841 24.83 5.1 41.2 39 -7.6 18.3
14:45 1012 29.88 841 24.83 5.2 41.4 38 -7.8 17.9
14:50 1012 29.88 841 24.83 5.4 41.8 36 -8.3 17
14:55 1012 29.88 841 24.83 5.4 41.7 36 -8.7 16.3
15:00 1012 29.88 841 24.83 5.3 41.6 37 -8.1 17.4
15:05 1012 29.88 841 24.83 5.3 41.5 38 -8 17.5
15:10 1011 29.85 841 24.83 5.3 41.6 35 -8.9 16
15:15 1012 29.88 841 24.83 5.4 41.7 36 -8.5 16.7
15:20 1011 29.85 841 24.83 5.4 41.7 36 -8.4 17
15:25 1011 29.85 841 24.83 5.7 42.2 35 -8.5 16.7
15:30 1011 29.85 841 24.83 5.6 42.2 39 -7.4 18.7
15:35 1011 29.85 840 24.81 5.3 41.6 37 -8.2 17.2
15:40 1011 29.85 840 24.81 5.3 41.5 38 -7.8 18
15:45 1011 29.85 840 24.81 5.3 41.5 36 -8.5 16.6
15:50 1011 29.85 840 24.81 5.3 41.5 38 -8 17.6
15:55 1011 29.85 840 24.81 5.3 41.5 36 -8.7 16.4
16:00 1011 29.85 840 24.81 5.1 41.2 36 -8.7 16.3
16:05 1011 29.85 840 24.81 5.1 41.1 39 -7.9 17.8
16:10 1011 29.85 840 24.81 5 41.1 36 -8.7 16.4
16:15 1011 29.85 840 24.81 5.2 41.3 38 -7.9 17.8
16:20 1011 29.85 840 24.81 5.4 41.6 38 -7.9 17.8
16:25 1011 29.85 840 24.81 5.3 41.5 37 -8.2 17.2
16:30 1011 29.85 840 24.81 5.2 41.4 38 -8 17.5
16:35 1011 29.85 840 24.81 5.3 41.5 37 -8.4 16.9
16:40 1011 29.85 840 24.81 5.3 41.6 35 -8.9 16
16:45 1011 29.85 840 24.81 5.4 41.8 34 -9.1 15.6
16:50 1010 29.83 840 24.81 5.6 42.2 36 -8.2 17.2
16:55 1010 29.83 840 24.81 5.4 41.7 37 -8.3 17
17:00 1010 29.83 840 24.81 5.4 41.7 34 -9.1 15.6
17:05 1010 29.83 840 24.81 5.3 41.5 35 -8.9 15.9
17:10 1010 29.83 839 24.78 5.2 41.3 36 -8.7 16.3
17:15 1010 29.83 839 24.78 5.1 41.1 35 -9.2 15.4
17:20 1010 29.83 839 24.78 5.1 41.1 36 -8.9 16
17:25 1010 29.83 839 24.78 5 40.9 37 -8.7 16.4
17:30 1010 29.83 839 24.78 4.9 40.9 35 -9.2 15.4
17:35 1010 29.83 839 24.78 4.9 40.9 35 -9.4 15.1
17:40 1010 29.83 839 24.78 5 41 34 -9.5 14.9
17:45 1010 29.83 839 24.78 5.1 41.2 35 -9.3 15.3
17:50 1010 29.83 839 24.78 5 41 34 -9.5 14.9
17:55 1010 29.83 839 24.78 4.8 40.6 35 -9.4 15.1
18:00 1010 29.83 839 24.78 4.8 40.6 36 -9.2 15.4
18:05 1010 29.83 839 24.78 4.6 40.3 37 -8.8 16.2
18:10 1010 29.83 839 24.78 4.3 39.7 39 -8.5 16.8
18:15 1010 29.83 839 24.78 4.2 39.6 38 -8.9 15.9
18:20 1010 29.83 839 24.78 4.2 39.5 38 -9 15.7
18:25 1010 29.83 839 24.78 4.3 39.7 37 -9.2 15.5
18:30 1010 29.83 839 24.78 4.2 39.6 39 -8.5 16.6
18:35 1010 29.83 839 24.78 4.1 39.3 39 -8.7 16.3
18:40 1010 29.83 839 24.78 4 39.1 39 -8.9 16.1
18:45 1010 29.83 839 24.78 4.1 39.3 38 -8.9 16
18:50 1010 29.83 839 24.78 3.9 39.1 39 -8.9 16
18:55 1010 29.83 839 24.78 3.9 39 39 -8.9 16
19:00 1010 29.83 839 24.78 3.9 39 39 -8.7 16.4
19:05 1010 29.83 839 24.78 3.9 39 38 -9 15.7
19:10 1010 29.83 839 24.78 4 39.1 39 -8.7 16.4
19:15 1010 29.83 839 24.78 3.8 38.9 39 -9.1 15.7
19:20 1010 29.83 839 24.78 3.9 39 39 -8.9 15.9
19:25 1010 29.83 839 24.78 3.9 39.1 39 -8.8 16.1
19:30 1009 29.8 839 24.78 4.1 39.4 36 -9.7 14.5
19:35 1009 29.8 839 24.78 4.3 39.8 35 -9.8 14.4
19:40 1009 29.8 839 24.78 4.4 40 36 -9.5 14.9
19:45 1009 29.8 839 24.78 4.3 39.7 36 -9.5 14.9
19:50 1009 29.8 838 24.75 4.5 40.1 35 -9.6 14.7
19:55 1009 29.8 838 24.75 4.4 39.9 35 -9.7 14.6
20:00 1009 29.8 838 24.75 4.5 40.1 36 -9.3 15.2
20:05 1009 29.8 838 24.75 4.4 40 36 -9.4 15.1
20:10 1009 29.8 838 24.75 4.3 39.7 37 -9.2 15.5
20:15 1009 29.8 838 24.75 4.4 39.8 36 -9.5 14.9
20:20 1009 29.8 838 24.75 4.4 39.8 37 -9.2 15.5
20:25 1009 29.8 838 24.75 4.4 40 35 -9.9 14.2
20:30 1009 29.8 838 24.75 4.8 40.6 34 -9.7 14.5
20:35 1009 29.8 838 24.75 4.7 40.4 34 -9.9 14.2
20:40 1009 29.8 838 24.75 4.6 40.4 36 -9.3 15.2
20:45 1009 29.8 838 24.75 4.4 39.9 37 -9.2 15.5
20:50 1009 29.8 839 24.78 4.3 39.8 38 -8.7 16.3
20:55 1009 29.8 839 24.78 4.3 39.7 35 -9.7 14.5
21:00 1009 29.8 838 24.75 4.4 40 37 -9.1 15.6
21:05 1009 29.8 838 24.75 4.4 39.9 38 -8.8 16.1
21:10 1009 29.8 838 24.75 4.2 39.6 40 -8.3 17.1
21:15 1009 29.8 838 24.75 4.2 39.6 38 -9 15.8
21:20 1009 29.8 838 24.75 4.3 39.8 37 -9.2 15.5
21:25 1009 29.8 838 24.75 4.4 39.9 39 -8.5 16.7
21:30 1009 29.8 838 24.75 4.1 39.4 39 -8.6 16.5
21:35 1009 29.8 838 24.75 4.1 39.5 39 -8.7 16.4
21:40 1009 29.8 838 24.75 4 39.3 41 -8.2 17.3
21:45 1009 29.8 838 24.75 3.9 39.1 39 -8.7 16.3
21:50 1009 29.8 838 24.75 4 39.2 40 -8.5 16.7
21:55 1009 29.8 838 24.75 4 39.2 41 -8.2 17.3
22:00 1009 29.8 838 24.75 3.9 39.1 40 -8.6 16.6
22:05 1009 29.8 838 24.75 4.1 39.5 40 -8.4 16.9
22:10 1009 29.8 838 24.75 4 39.2 41 -8.3 17.1
22:15 1009 29.8 838 24.75 4.2 39.5 39 -8.6 16.6
22:20 1009 29.8 838 24.75 4.2 39.5 39 -8.4 16.8
22:25 1009 29.8 838 24.75 4.1 39.5 40 -8.4 16.9
22:30 1009 29.8 838 24.75 4.1 39.4 41 -8.1 17.4
22:35 1009 29.8 838 24.75 3.9 39.1 40 -8.4 16.9
22:40 1009 29.8 838 24.75 4 39.2 40 -8.5 16.6
22:45 1009 29.8 838 24.75 4 39.2 40 -8.5 16.7
22:50 1009 29.8 838 24.75 4 39.1 40 -8.3 17.1
22:55 1009 29.8 838 24.75 3.9 39.1 40 -8.6 16.5
23:00 1009 29.8 838 24.75 4 39.1 41 -8.2 17.2
23:05 1009 29.8 838 24.75 3.9 39 40 -8.6 16.5
23:10 1009 29.8 838 24.75 4.1 39.3 39 -8.7 16.3
23:15 1009 29.8 838 24.75 4.2 39.6 39 -8.7 16.4
23:20 1009 29.8 838 24.75 4.4 39.9 39 -8.4 16.8
23:25 1009 29.8 838 24.75 4.3 39.7 40 -8.1 17.4
23:30 1009 29.8 838 24.75 4.1 39.4 41 -8.1 17.4
23:35 1009 29.8 838 24.75 4.2 39.5 40 -8.1 17.4
23:40 1009 29.8 838 24.75 4.2 39.5 39 -8.5 16.7
23:45 1009 29.8 838 24.75 4.3 39.7 40 -8.1 17.5
23:50 1009 29.8 838 24.75 4.2 39.5 40 -8.1 17.4
23:55 1009 29.8 838 24.75 4 39.3 42 -7.8 18
24:00 1009 29.8 838 24.75 4 39.1 43 -7.4 18.6